sensor_id;sensor_type;location;lat;lon;timestamp;pressure;altitude;pressure_sealevel;temperature;humidity
47556;BME280;33291;46.222;26.460;2022-12-01T00:00:57;97420.47;;;1.47;95.98
47556;BME280;33291;46.222;26.460;2022-12-01T00:03:23;97429.00;;;1.47;95.83
47556;BME280;33291;46.222;26.460;2022-12-01T00:08:25;97441.78;;;1.49;96.00
47556;BME280;33291;46.222;26.460;2022-12-01T00:10:51;97448.78;;;1.45;95.83
47556;BME280;33291;46.222;26.460;2022-12-01T00:13:17;97451.97;;;1.50;95.74
47556;BME280;33291;46.222;26.460;2022-12-01T00:15:42;97456.25;;;1.51;95.46
47556;BME280;33291;46.222;26.460;2022-12-01T00:18:08;97451.41;;;1.44;95.79
47556;BME280;33291;46.222;26.460;2022-12-01T00:20:34;97444.53;;;1.44;95.91
47556;BME280;33291;46.222;26.460;2022-12-01T00:23:01;97453.03;;;1.46;95.76
47556;BME280;33291;46.222;26.460;2022-12-01T00:25:27;97445.25;;;1.48;95.93
47556;BME280;33291;46.222;26.460;2022-12-01T00:27:53;97429.97;;;1.45;95.86
47556;BME280;33291;46.222;26.460;2022-12-01T00:30:20;97411.38;;;1.38;96.09
47556;BME280;33291;46.222;26.460;2022-12-01T00:32:47;97437.63;;;1.46;95.95
47556;BME280;33291;46.222;26.460;2022-12-01T00:35:13;97440.31;;;1.43;95.91
47556;BME280;33291;46.222;26.460;2022-12-01T00:37:39;97434.25;;;1.44;95.82
47556;BME280;33291;46.222;26.460;2022-12-01T00:40:06;97423.16;;;1.44;96.14
47556;BME280;33291;46.222;26.460;2022-12-01T00:42:32;97420.72;;;1.40;96.01
47556;BME280;33291;46.222;26.460;2022-12-01T00:44:58;97419.81;;;1.41;95.99
47556;BME280;33291;46.222;26.460;2022-12-01T00:47:23;97412.06;;;1.43;95.63
47556;BME280;33291;46.222;26.460;2022-12-01T00:49:49;97415.50;;;1.42;95.59
47556;BME280;33291;46.222;26.460;2022-12-01T00:52:17;97418.97;;;1.41;95.55
47556;BME280;33291;46.222;26.460;2022-12-01T00:54:43;97411.19;;;1.42;95.35
47556;BME280;33291;46.222;26.460;2022-12-01T00:57:09;97412.06;;;1.43;95.36
47556;BME280;33291;46.222;26.460;2022-12-01T00:59:34;97410.38;;;1.42;95.41
47556;BME280;33291;46.222;26.460;2022-12-01T01:02:01;97399.47;;;1.37;94.93
47556;BME280;33291;46.222;26.460;2022-12-01T01:04:31;97394.50;;;1.32;94.85
47556;BME280;33291;46.222;26.460;2022-12-01T01:06:56;97412.19;;;1.40;94.89
47556;BME280;33291;46.222;26.460;2022-12-01T01:09:22;97413.31;;;1.33;94.74
47556;BME280;33291;46.222;26.460;2022-12-01T01:11:48;97410.84;;;1.30;95.19
47556;BME280;33291;46.222;26.460;2022-12-01T01:14:14;97419.44;;;1.29;95.76
47556;BME280;33291;46.222;26.460;2022-12-01T01:16:39;97413.84;;;1.19;95.97
47556;BME280;33291;46.222;26.460;2022-12-01T01:19:05;97421.38;;;1.23;96.06
47556;BME280;33291;46.222;26.460;2022-12-01T01:21:31;97424.94;;;1.19;96.15
47556;BME280;33291;46.222;26.460;2022-12-01T01:23:56;97418.84;;;1.22;96.22
47556;BME280;33291;46.222;26.460;2022-12-01T01:26:24;97439.09;;;1.30;95.91
47556;BME280;33291;46.222;26.460;2022-12-01T01:28:51;97422.94;;;1.28;95.81
47556;BME280;33291;46.222;26.460;2022-12-01T01:31:20;97433.97;;;1.30;95.76
47556;BME280;33291;46.222;26.460;2022-12-01T01:33:46;97426.25;;;1.30;95.75
47556;BME280;33291;46.222;26.460;2022-12-01T01:36:13;97416.94;;;1.27;95.86
47556;BME280;33291;46.222;26.460;2022-12-01T01:38:39;97419.38;;;1.30;96.03
47556;BME280;33291;46.222;26.460;2022-12-01T01:41:06;97416.88;;;1.29;95.40
47556;BME280;33291;46.222;26.460;2022-12-01T01:43:50;97388.59;;;1.08;95.44
47556;BME280;33291;46.222;26.460;2022-12-01T01:48:45;97419.56;;;1.26;95.68
47556;BME280;33291;46.222;26.460;2022-12-01T01:51:12;97386.91;;;1.07;95.63
47556;BME280;33291;46.222;26.460;2022-12-01T01:53:40;97414.44;;;1.26;95.27
47556;BME280;33291;46.222;26.460;2022-12-01T01:56:07;97417.84;;;1.26;95.24
47556;BME280;33291;46.222;26.460;2022-12-01T01:58:33;97415.28;;;1.26;95.43
47556;BME280;33291;46.222;26.460;2022-12-01T02:01:00;97400.84;;;1.23;95.11
47556;BME280;33291;46.222;26.460;2022-12-01T02:03:27;97399.81;;;1.28;95.00
47556;BME280;33291;46.222;26.460;2022-12-01T02:05:54;97396.63;;;1.21;95.03
47556;BME280;33291;46.222;26.460;2022-12-01T02:08:19;97394.31;;;1.15;94.74
47556;BME280;33291;46.222;26.460;2022-12-01T02:16:26;97417.91;;;1.24;95.22
47556;BME280;33291;46.222;26.460;2022-12-01T02:35:19;97373.59;;;1.19;94.90
47556;BME280;33291;46.222;26.460;2022-12-01T02:38:00;97389.72;;;1.23;94.75
47556;BME280;33291;46.222;26.460;2022-12-01T02:40:39;97384.44;;;1.28;94.54
47556;BME280;33291;46.222;26.460;2022-12-01T02:43:30;97389.56;;;1.28;94.72
47556;BME280;33291;46.222;26.460;2022-12-01T02:46:04;97393.00;;;1.27;94.53
47556;BME280;33291;46.222;26.460;2022-12-01T02:48:37;97389.56;;;1.28;94.60
47556;BME280;33291;46.222;26.460;2022-12-01T02:51:17;97377.91;;;1.19;94.75
47556;BME280;33291;46.222;26.460;2022-12-01T02:53:44;97386.13;;;1.27;94.64
47556;BME280;33291;46.222;26.460;2022-12-01T02:56:12;97385.31;;;1.27;94.87
47556;BME280;33291;46.222;26.460;2022-12-01T02:58:39;97376.94;;;1.21;94.70
47556;BME280;33291;46.222;26.460;2022-12-01T03:17:49;97387.38;;;1.17;95.17
47556;BME280;33291;46.222;26.460;2022-12-01T03:20:29;97394.19;;;1.18;95.19
47556;BME280;33291;46.222;26.460;2022-12-01T03:23:03;97394.13;;;1.19;95.19
47556;BME280;33291;46.222;26.460;2022-12-01T03:25:33;97375.75;;;1.08;95.06
47556;BME280;33291;46.222;26.460;2022-12-01T03:28:00;97393.31;;;1.19;95.31
47556;BME280;33291;46.222;26.460;2022-12-01T03:30:29;97376.59;;;1.09;95.48
47556;BME280;33291;46.222;26.460;2022-12-01T03:33:05;97393.53;;;1.13;95.29
47556;BME280;33291;46.222;26.460;2022-12-01T03:36:08;97396.81;;;1.16;95.43
47556;BME280;33291;46.222;26.460;2022-12-01T03:38:35;97379.09;;;1.10;95.43
47556;BME280;33291;46.222;26.460;2022-12-01T03:41:15;97390.81;;;1.17;95.60
47556;BME280;33291;46.222;26.460;2022-12-01T03:43:47;97391.56;;;1.19;95.46
47556;BME280;33291;46.222;26.460;2022-12-01T03:46:25;97388.28;;;1.16;95.48
47556;BME280;33291;46.222;26.460;2022-12-01T03:48:56;97392.69;;;1.12;95.10
47556;BME280;33291;46.222;26.460;2022-12-01T03:54:02;97395.94;;;1.17;94.74
47556;BME280;33291;46.222;26.460;2022-12-01T03:56:36;97395.06;;;1.17;95.21
47556;BME280;33291;46.222;26.460;2022-12-01T03:59:09;97391.91;;;1.10;95.35
47556;BME280;33291;46.222;26.460;2022-12-01T04:01:35;97385.16;;;1.08;95.21
47556;BME280;33291;46.222;26.460;2022-12-01T04:04:06;97393.66;;;1.10;94.94
47556;BME280;33291;46.222;26.460;2022-12-01T04:06:32;97388.34;;;1.14;94.97
47556;BME280;33291;46.222;26.460;2022-12-01T04:08:58;97394.50;;;1.10;94.81
47556;BME280;33291;46.222;26.460;2022-12-01T04:11:23;97398.78;;;1.10;94.84
47556;BME280;33291;46.222;26.460;2022-12-01T04:14:07;97411.50;;;1.13;94.73
47556;BME280;33291;46.222;26.460;2022-12-01T04:16:32;97404.69;;;1.12;94.46
47556;BME280;33291;46.222;26.460;2022-12-01T04:18:58;97407.19;;;1.13;94.53
47556;BME280;33291;46.222;26.460;2022-12-01T04:21:23;97403.06;;;1.09;94.30
47556;BME280;33291;46.222;26.460;2022-12-01T04:23:49;97402.47;;;1.02;93.50
47556;BME280;33291;46.222;26.460;2022-12-01T04:26:28;97412.56;;;1.07;93.79
47556;BME280;33291;46.222;26.460;2022-12-01T04:28:54;97410.78;;;1.09;93.93
47556;BME280;33291;46.222;26.460;2022-12-01T04:31:20;97404.88;;;1.07;93.86
47556;BME280;33291;46.222;26.460;2022-12-01T04:33:45;97384.69;;;0.98;94.11
47556;BME280;33291;46.222;26.460;2022-12-01T04:36:11;97407.38;;;1.09;94.17
47556;BME280;33291;46.222;26.460;2022-12-01T04:38:37;97404.69;;;1.12;93.99
47556;BME280;33291;46.222;26.460;2022-12-01T04:41:09;97401.31;;;1.11;93.52
47556;BME280;33291;46.222;26.460;2022-12-01T04:43:35;97403.81;;;1.13;93.30
47556;BME280;33291;46.222;26.460;2022-12-01T04:46:01;97410.66;;;1.12;93.29
47556;BME280;33291;46.222;26.460;2022-12-01T04:48:27;97416.69;;;1.11;93.24
47556;BME280;33291;46.222;26.460;2022-12-01T04:50:53;97410.19;;;1.02;93.21
47556;BME280;33291;46.222;26.460;2022-12-01T04:53:18;97413.56;;;1.03;93.26
47556;BME280;33291;46.222;26.460;2022-12-01T04:55:44;97426.22;;;1.08;92.97
47556;BME280;33291;46.222;26.460;2022-12-01T04:58:09;97416.06;;;1.04;93.04
47556;BME280;33291;46.222;26.460;2022-12-01T05:00:36;97430.53;;;1.07;92.67
47556;BME280;33291;46.222;26.460;2022-12-01T05:03:01;97419.56;;;1.03;92.58
47556;BME280;33291;46.222;26.460;2022-12-01T05:05:28;97430.53;;;1.07;92.83
47556;BME280;33291;46.222;26.460;2022-12-01T05:07:53;97419.56;;;1.03;92.78
47556;BME280;33291;46.222;26.460;2022-12-01T05:10:19;97381.78;;;0.83;92.77
47556;BME280;33291;46.222;26.460;2022-12-01T05:12:45;97416.88;;;1.06;92.57
47556;BME280;33291;46.222;26.460;2022-12-01T05:15:11;97405.22;;;0.98;92.89
47556;BME280;33291;46.222;26.460;2022-12-01T05:17:37;97421.94;;;1.08;92.49
47556;BME280;33291;46.222;26.460;2022-12-01T05:20:04;97417.69;;;1.07;92.61
47556;BME280;33291;46.222;26.460;2022-12-01T05:22:48;97412.56;;;1.07;92.53
47556;BME280;33291;46.222;26.460;2022-12-01T05:25:14;97400.91;;;0.98;92.36
47556;BME280;33291;46.222;26.460;2022-12-01T05:27:39;97417.03;;;1.02;92.07
47556;BME280;33291;46.222;26.460;2022-12-01T05:30:05;97417.81;;;1.04;92.36
47556;BME280;33291;46.222;26.460;2022-12-01T05:32:31;97418.69;;;1.03;92.39
47556;BME280;33291;46.222;26.460;2022-12-01T05:34:57;97420.38;;;1.04;92.40
47556;BME280;33291;46.222;26.460;2022-12-01T05:37:22;97427.13;;;1.06;92.39
47556;BME280;33291;46.222;26.460;2022-12-01T05:39:48;97427.91;;;1.09;92.00
47556;BME280;33291;46.222;26.460;2022-12-01T05:42:13;97427.91;;;1.09;92.12
47556;BME280;33291;46.222;26.460;2022-12-01T05:44:39;97428.84;;;1.06;91.99
47556;BME280;33291;46.222;26.460;2022-12-01T05:47:05;97416.19;;;1.01;92.12
47556;BME280;33291;46.222;26.460;2022-12-01T05:49:30;97420.56;;;0.99;92.34
47556;BME280;33291;46.222;26.460;2022-12-01T05:51:56;97430.75;;;1.01;92.43
47556;BME280;33291;46.222;26.460;2022-12-01T05:54:21;97425.75;;;0.98;92.20
47556;BME280;33291;46.222;26.460;2022-12-01T05:56:47;97425.78;;;0.96;92.37
47556;BME280;33291;46.222;26.460;2022-12-01T05:59:12;97429.31;;;0.94;92.43
47556;BME280;33291;46.222;26.460;2022-12-01T06:01:38;97436.13;;;0.95;92.62
47556;BME280;33291;46.222;26.460;2022-12-01T06:04:03;97422.50;;;0.93;92.76
47556;BME280;33291;46.222;26.460;2022-12-01T06:06:29;97412.34;;;0.89;92.38
47556;BME280;33291;46.222;26.460;2022-12-01T06:08:54;97416.41;;;0.95;92.64
47556;BME280;33291;46.222;26.460;2022-12-01T06:11:20;97425.84;;;0.95;92.08
47556;BME280;33291;46.222;26.460;2022-12-01T06:13:46;97417.34;;;0.93;92.24
47556;BME280;33291;46.222;26.460;2022-12-01T06:16:11;97423.41;;;0.92;92.30
47556;BME280;33291;46.222;26.460;2022-12-01T06:18:37;97424.41;;;0.87;92.20
47556;BME280;33291;46.222;26.460;2022-12-01T06:21:04;97426.09;;;0.88;92.44
47556;BME280;33291;46.222;26.460;2022-12-01T06:23:31;97426.78;;;0.92;92.54
47556;BME280;33291;46.222;26.460;2022-12-01T06:25:57;97420.94;;;0.88;92.44
47556;BME280;33291;46.222;26.460;2022-12-01T06:28:23;97431.97;;;0.91;92.29
47556;BME280;33291;46.222;26.460;2022-12-01T06:30:48;97437.94;;;0.91;92.28
47556;BME280;33291;46.222;26.460;2022-12-01T06:33:14;97430.31;;;0.89;92.35
47556;BME280;33291;46.222;26.460;2022-12-01T06:35:40;97419.28;;;0.87;91.75
47556;BME280;33291;46.222;26.460;2022-12-01T06:38:05;97434.53;;;0.91;91.45
47556;BME280;33291;46.222;26.460;2022-12-01T06:40:31;97446.56;;;0.90;91.43
47556;BME280;33291;46.222;26.460;2022-12-01T06:43:00;97432.16;;;0.86;91.33
47556;BME280;33291;46.222;26.460;2022-12-01T06:45:27;97438.00;;;0.89;91.14
47556;BME280;33291;46.222;26.460;2022-12-01T06:47:54;97434.44;;;0.94;91.40
47556;BME280;33291;46.222;26.460;2022-12-01T06:50:20;97437.88;;;0.93;90.93
47556;BME280;33291;46.222;26.460;2022-12-01T06:52:46;97430.31;;;0.89;90.91
47556;BME280;33291;46.222;26.460;2022-12-01T06:55:12;97431.28;;;0.87;90.84
47556;BME280;33291;46.222;26.460;2022-12-01T06:57:38;97428.72;;;0.87;90.46
47556;BME280;33291;46.222;26.460;2022-12-01T07:00:05;97426.91;;;0.89;90.59
47556;BME280;33291;46.222;26.460;2022-12-01T07:02:31;97426.09;;;0.88;90.36
47556;BME280;33291;46.222;26.460;2022-12-01T07:04:56;97429.81;;;0.80;88.14
47556;BME280;33291;46.222;26.460;2022-12-01T07:07:22;97435.66;;;0.83;88.20
47556;BME280;33291;46.222;26.460;2022-12-01T07:09:47;97433.84;;;0.87;88.13
47556;BME280;33291;46.222;26.460;2022-12-01T07:12:13;97425.22;;;0.88;88.10
47556;BME280;33291;46.222;26.460;2022-12-01T07:14:38;97418.34;;;0.90;88.17
47556;BME280;33291;46.222;26.460;2022-12-01T07:17:07;97439.78;;;0.87;87.28
47556;BME280;33291;46.222;26.460;2022-12-01T07:19:33;97433.94;;;0.84;87.56
47556;BME280;33291;46.222;26.460;2022-12-01T07:21:58;97443.13;;;0.89;87.41
47556;BME280;33291;46.222;26.460;2022-12-01T07:24:24;97433.09;;;0.83;87.12
47556;BME280;33291;46.222;26.460;2022-12-01T07:26:50;97439.78;;;0.87;86.71
47556;BME280;33291;46.222;26.460;2022-12-01T07:29:15;97433.19;;;0.80;86.61
47556;BME280;33291;46.222;26.460;2022-12-01T07:31:41;97440.78;;;0.83;86.23
47556;BME280;33291;46.222;26.460;2022-12-01T07:34:10;97443.34;;;0.83;86.62
47556;BME280;33291;46.222;26.460;2022-12-01T07:36:36;97445.09;;;0.83;86.26
47556;BME280;33291;46.222;26.460;2022-12-01T07:39:06;97436.91;;;0.73;86.48
47556;BME280;33291;46.222;26.460;2022-12-01T07:41:32;97437.63;;;0.77;86.74
47556;BME280;33291;46.222;26.460;2022-12-01T07:43:58;97444.47;;;0.76;86.63
47556;BME280;33291;46.222;26.460;2022-12-01T07:46:25;97447.88;;;0.77;86.38
47556;BME280;33291;46.222;26.460;2022-12-01T07:48:52;97446.94;;;0.79;86.74
47556;BME280;33291;46.222;26.460;2022-12-01T07:51:19;97444.59;;;0.73;86.48
47556;BME280;33291;46.222;26.460;2022-12-01T07:53:46;97447.88;;;0.77;86.75
47556;BME280;33291;46.222;26.460;2022-12-01T07:56:13;97442.75;;;0.77;86.76
47556;BME280;33291;46.222;26.460;2022-12-01T07:58:40;97444.53;;;0.75;86.68
47556;BME280;33291;46.222;26.460;2022-12-01T08:01:07;97449.44;;;0.81;86.52
47556;BME280;33291;46.222;26.460;2022-12-01T08:03:33;97445.16;;;0.81;86.27
47556;BME280;33291;46.222;26.460;2022-12-01T08:06:00;97443.56;;;0.77;85.95
47556;BME280;33291;46.222;26.460;2022-12-01T08:08:26;97449.44;;;0.81;86.12
47556;BME280;33291;46.222;26.460;2022-12-01T08:10:52;97439.34;;;0.76;86.25
47556;BME280;33291;46.222;26.460;2022-12-01T08:13:18;97432.59;;;0.74;86.43
47556;BME280;33291;46.222;26.460;2022-12-01T08:15:44;97444.31;;;0.81;86.16
47556;BME280;33291;46.222;26.460;2022-12-01T08:18:10;97443.47;;;0.80;86.71
47556;BME280;33291;46.222;26.460;2022-12-01T08:20:35;97438.66;;;0.71;87.13
47556;BME280;33291;46.222;26.460;2022-12-01T08:23:02;97426.00;;;0.66;87.04
47556;BME280;33291;46.222;26.460;2022-12-01T08:25:28;97436.09;;;0.71;87.39
47556;BME280;33291;46.222;26.460;2022-12-01T08:27:54;97442.03;;;0.73;87.35
47556;BME280;33291;46.222;26.460;2022-12-01T08:30:20;97435.31;;;0.69;87.41
47556;BME280;33291;46.222;26.460;2022-12-01T08:32:46;97421.78;;;0.65;87.54
47556;BME280;33291;46.222;26.460;2022-12-01T08:35:11;97442.84;;;0.74;87.82
47556;BME280;33291;46.222;26.460;2022-12-01T08:37:37;97435.09;;;0.75;87.52
47556;BME280;33291;46.222;26.460;2022-12-01T08:40:03;97423.28;;;0.71;87.51
47556;BME280;33291;46.222;26.460;2022-12-01T08:42:29;97427.59;;;0.70;87.64
47556;BME280;33291;46.222;26.460;2022-12-01T08:44:55;97426.66;;;0.73;87.64
47556;BME280;33291;46.222;26.460;2022-12-01T08:47:20;97416.59;;;0.67;87.78
47556;BME280;33291;46.222;26.460;2022-12-01T08:49:46;97419.00;;;0.72;87.53
47556;BME280;33291;46.222;26.460;2022-12-01T08:52:12;97409.03;;;0.64;87.33
47556;BME280;33291;46.222;26.460;2022-12-01T08:54:37;97425.00;;;0.70;87.46
47556;BME280;33291;46.222;26.460;2022-12-01T08:57:03;97424.19;;;0.70;87.80
47556;BME280;33291;46.222;26.460;2022-12-01T08:59:28;97419.84;;;0.72;87.63
47556;BME280;33291;46.222;26.460;2022-12-01T09:01:54;97418.09;;;0.73;87.56
47556;BME280;33291;46.222;26.460;2022-12-01T09:04:25;97411.38;;;0.70;87.71
47556;BME280;33291;46.222;26.460;2022-12-01T09:06:52;97406.47;;;0.64;87.86
47556;BME280;33291;46.222;26.460;2022-12-01T09:09:23;97416.44;;;0.72;87.90
47556;BME280;33291;46.222;26.460;2022-12-01T09:11:49;97415.59;;;0.71;88.00
47556;BME280;33291;46.222;26.460;2022-12-01T09:14:17;97416.44;;;0.72;87.64
47556;BME280;33291;46.222;26.460;2022-12-01T09:16:43;97427.53;;;0.72;87.76
47556;BME280;33291;46.222;26.460;2022-12-01T09:19:09;97426.53;;;0.76;87.70
47556;BME280;33291;46.222;26.460;2022-12-01T09:21:35;97403.50;;;0.75;87.36
47556;BME280;33291;46.222;26.460;2022-12-01T09:24:05;97415.53;;;0.73;87.51
47556;BME280;33291;46.222;26.460;2022-12-01T09:26:32;97413.03;;;0.71;87.48
47556;BME280;33291;46.222;26.460;2022-12-01T09:29:01;97409.69;;;0.69;87.49
47556;BME280;33291;46.222;26.460;2022-12-01T09:31:27;97403.00;;;0.65;87.43
47556;BME280;33291;46.222;26.460;2022-12-01T09:33:54;97403.72;;;0.68;87.56
47556;BME280;33291;46.222;26.460;2022-12-01T09:36:20;97397.03;;;0.64;87.32
47556;BME280;33291;46.222;26.460;2022-12-01T09:38:46;97400.47;;;0.63;87.42
47556;BME280;33291;46.222;26.460;2022-12-01T09:41:21;97393.47;;;0.68;87.21
47556;BME280;33291;46.222;26.460;2022-12-01T09:44:01;97397.41;;;0.77;87.26
47556;BME280;33291;46.222;26.460;2022-12-01T09:46:34;97395.88;;;0.73;86.44
47556;BME280;33291;46.222;26.460;2022-12-01T09:49:05;97399.31;;;0.72;85.90
47556;BME280;33291;46.222;26.460;2022-12-01T09:51:36;97397.69;;;0.69;85.59
47556;BME280;33291;46.222;26.460;2022-12-01T09:54:02;97397.75;;;0.68;85.73
47556;BME280;33291;46.222;26.460;2022-12-01T09:56:32;97391.84;;;0.66;86.30
47556;BME280;33291;46.222;26.460;2022-12-01T09:59:06;97385.84;;;0.67;85.88
47556;BME280;33291;46.222;26.460;2022-12-01T10:01:41;97386.59;;;0.69;85.51
47556;BME280;33291;46.222;26.460;2022-12-01T10:07:03;97382.41;;;0.66;85.90
47556;BME280;33291;46.222;26.460;2022-12-01T10:09:54;97383.47;;;0.61;85.97
47556;BME280;33291;46.222;26.460;2022-12-01T10:12:22;97364.09;;;0.53;85.61
47556;BME280;33291;46.222;26.460;2022-12-01T10:14:52;97387.59;;;0.65;85.52
47556;BME280;33291;46.222;26.460;2022-12-01T10:25:27;97372.06;;;0.46;85.64
47556;BME280;33291;46.222;26.460;2022-12-01T10:30:49;97360.03;;;0.48;86.02
47556;BME280;33291;46.222;26.460;2022-12-01T10:33:26;97361.47;;;0.55;86.36
47556;BME280;33291;46.222;26.460;2022-12-01T10:35:55;97353.94;;;0.50;86.13
47556;BME280;33291;46.222;26.460;2022-12-01T10:38:30;97359.84;;;0.52;85.91
47556;BME280;33291;46.222;26.460;2022-12-01T10:40:58;97348.94;;;0.47;86.52
47556;BME280;33291;46.222;26.460;2022-12-01T10:43:33;97352.16;;;0.52;86.63
47556;BME280;33291;46.222;26.460;2022-12-01T10:46:18;97352.97;;;0.53;87.15
47556;BME280;33291;46.222;26.460;2022-12-01T10:49:06;97353.91;;;0.52;87.22
47556;BME280;33291;46.222;26.460;2022-12-01T10:51:55;97361.47;;;0.55;87.24
47556;BME280;33291;46.222;26.460;2022-12-01T10:54:32;97352.09;;;0.54;88.03
47556;BME280;33291;46.222;26.460;2022-12-01T10:57:00;97344.34;;;0.56;87.91
47556;BME280;33291;46.222;26.460;2022-12-01T11:02:04;97328.53;;;0.44;88.06
47556;BME280;33291;46.222;26.460;2022-12-01T11:04:41;97350.59;;;0.48;88.38
47556;BME280;33291;46.222;26.460;2022-12-01T11:07:21;97333.56;;;0.47;87.95
47556;BME280;33291;46.222;26.460;2022-12-01T11:09:58;97341.25;;;0.47;87.98
47556;BME280;33291;46.222;26.460;2022-12-01T11:12:27;97351.72;;;0.41;87.84
47556;BME280;33291;46.222;26.460;2022-12-01T11:14:54;97345.91;;;0.36;87.93
47556;BME280;33291;46.222;26.460;2022-12-01T11:17:24;97347.38;;;0.43;88.40
47556;BME280;33291;46.222;26.460;2022-12-01T11:19:50;97347.25;;;0.46;88.49
47556;BME280;33291;46.222;26.460;2022-12-01T11:22:23;97329.59;;;0.39;88.70
47556;BME280;33291;46.222;26.460;2022-12-01T11:27:22;97338.09;;;0.39;88.09
47556;BME280;33291;46.222;26.460;2022-12-01T11:29:58;97314.56;;;0.29;88.88
47556;BME280;33291;46.222;26.460;2022-12-01T11:32:26;97324.69;;;0.32;89.14
47556;BME280;33291;46.222;26.460;2022-12-01T11:35:15;97315.94;;;0.38;88.95
47556;BME280;33291;46.222;26.460;2022-12-01T11:37:45;97319.34;;;0.39;89.11
47556;BME280;33291;46.222;26.460;2022-12-01T11:42:49;97321.97;;;0.37;90.07
47556;BME280;33291;46.222;26.460;2022-12-01T11:50:38;97323.47;;;0.43;89.46
47556;BME280;33291;46.222;26.460;2022-12-01T11:53:27;97326.88;;;0.43;89.05
47556;BME280;33291;46.222;26.460;2022-12-01T11:56:13;97315.78;;;0.43;88.40
47556;BME280;33291;46.222;26.460;2022-12-01T11:58:41;97308.25;;;0.38;88.31
47556;BME280;33291;46.222;26.460;2022-12-01T12:01:23;97313.38;;;0.38;88.55
47556;BME280;33291;46.222;26.460;2022-12-01T12:13:01;97318.00;;;0.28;89.03
47556;BME280;33291;46.222;26.460;2022-12-01T12:15:45;97314.66;;;0.26;88.47
47556;BME280;33291;46.222;26.460;2022-12-01T12:18:45;97309.69;;;0.22;88.60
47556;BME280;33291;46.222;26.460;2022-12-01T12:21:31;97315.06;;;0.15;89.18
47556;BME280;33291;46.222;26.460;2022-12-01T12:37:52;97312.31;;;0.20;89.13
47556;BME280;33291;46.222;26.460;2022-12-01T12:40:40;97314.94;;;0.19;88.90
47556;BME280;33291;46.222;26.460;2022-12-01T12:43:31;97308.78;;;0.23;88.85
47556;BME280;33291;46.222;26.460;2022-12-01T12:46:04;97308.91;;;0.20;89.08
47556;BME280;33291;46.222;26.460;2022-12-01T12:51:53;97311.19;;;0.27;89.15
47556;BME280;33291;46.222;26.460;2022-12-01T13:02:40;97312.69;;;0.33;89.66
47556;BME280;33291;46.222;26.460;2022-12-01T13:05:19;97319.56;;;0.32;89.55
47556;BME280;33291;46.222;26.460;2022-12-01T13:08:12;97287.59;;;0.19;89.79
47556;BME280;33291;46.222;26.460;2022-12-01T13:11:12;97311.06;;;0.30;89.56
47556;BME280;33291;46.222;26.460;2022-12-01T13:14:02;97312.75;;;0.31;89.33
47556;BME280;33291;46.222;26.460;2022-12-01T13:16:37;97309.53;;;0.26;89.17
47556;BME280;33291;46.222;26.460;2022-12-01T13:19:21;97306.91;;;0.28;89.38
47556;BME280;33291;46.222;26.460;2022-12-01T13:21:50;97311.94;;;0.31;89.23
47556;BME280;33291;46.222;26.460;2022-12-01T13:24:20;97312.75;;;0.31;89.65
47556;BME280;33291;46.222;26.460;2022-12-01T13:29:35;97309.44;;;0.29;89.71
47556;BME280;33291;46.222;26.460;2022-12-01T13:32:06;97303.50;;;0.27;89.68
47556;BME280;33291;46.222;26.460;2022-12-01T13:34:41;97303.56;;;0.26;90.01
47556;BME280;33291;46.222;26.460;2022-12-01T13:37:08;97297.72;;;0.22;89.96
47556;BME280;33291;46.222;26.460;2022-12-01T13:39:36;97303.66;;;0.23;90.19
47556;BME280;33291;46.222;26.460;2022-12-01T13:42:24;97301.91;;;0.25;90.07
47556;BME280;33291;46.222;26.460;2022-12-01T13:45:00;97306.97;;;0.26;90.01
47556;BME280;33291;46.222;26.460;2022-12-01T13:47:36;97307.03;;;0.25;89.95
47556;BME280;33291;46.222;26.460;2022-12-01T14:09:26;97288.28;;;0.23;89.74
47556;BME280;33291;46.222;26.460;2022-12-01T14:12:01;97286.41;;;0.28;89.69
47556;BME280;33291;46.222;26.460;2022-12-01T14:14:38;97299.22;;;0.28;89.78
47556;BME280;33291;46.222;26.460;2022-12-01T14:17:05;97296.03;;;0.21;89.88
47556;BME280;33291;46.222;26.460;2022-12-01T14:24:57;97297.00;;;0.19;90.28
47556;BME280;33291;46.222;26.460;2022-12-01T14:27:40;97314.66;;;0.26;89.89
47556;BME280;33291;46.222;26.460;2022-12-01T14:38:51;97294.28;;;0.23;89.73
47556;BME280;33291;46.222;26.460;2022-12-01T14:41:39;97292.47;;;0.25;89.87
47556;BME280;33291;46.222;26.460;2022-12-01T14:46:57;97284.97;;;0.21;89.75
47556;BME280;33291;46.222;26.460;2022-12-01T14:49:28;97277.34;;;0.19;89.92
47556;BME280;33291;46.222;26.460;2022-12-01T14:52:01;97291.88;;;0.19;89.52
47556;BME280;33291;46.222;26.460;2022-12-01T14:54:32;97293.41;;;0.23;89.53
47556;BME280;33291;46.222;26.460;2022-12-01T14:57:00;97299.41;;;0.23;89.73
47556;BME280;33291;46.222;26.460;2022-12-01T14:59:27;97299.50;;;0.20;89.94
47556;BME280;33291;46.222;26.460;2022-12-01T15:01:56;97304.56;;;0.22;89.87
47556;BME280;33291;46.222;26.460;2022-12-01T15:04:22;97286.88;;;0.15;89.99
47556;BME280;33291;46.222;26.460;2022-12-01T15:06:54;97299.41;;;0.23;89.96
47556;BME280;33291;46.222;26.460;2022-12-01T15:09:21;97307.16;;;0.22;89.92
47556;BME280;33291;46.222;26.460;2022-12-01T15:11:56;97296.94;;;0.20;89.81
47556;BME280;33291;46.222;26.460;2022-12-01T15:14:31;97300.44;;;0.17;90.03
47556;BME280;33291;46.222;26.460;2022-12-01T15:16:57;97297.13;;;0.15;90.27
47556;BME280;33291;46.222;26.460;2022-12-01T15:19:31;97292.94;;;0.13;90.16
47556;BME280;33291;46.222;26.460;2022-12-01T15:21:58;97294.50;;;0.17;90.41
47556;BME280;33291;46.222;26.460;2022-12-01T15:24:27;97299.63;;;0.17;90.36
47556;BME280;33291;46.222;26.460;2022-12-01T15:26:57;97281.97;;;0.09;90.29
47556;BME280;33291;46.222;26.460;2022-12-01T15:31:52;97290.41;;;0.11;89.98
47556;BME280;33291;46.222;26.460;2022-12-01T15:34:22;97292.88;;;0.14;89.95
47556;BME280;33291;46.222;26.460;2022-12-01T15:36:50;97280.16;;;0.11;89.93
47556;BME280;33291;46.222;26.460;2022-12-01T15:39:19;97300.50;;;0.16;90.32
47556;BME280;33291;46.222;26.460;2022-12-01T15:41:46;97284.81;;;0.02;90.47